sensor_id;sensor_type;location;lat;lon;timestamp;pressure;altitude;pressure_sealevel;temperature;humidity
39301;BME280;25019;42.626;23.380;2022-12-01T00:00:37;94647.00;;;2.32;100.00
39301;BME280;25019;42.626;23.380;2022-12-01T00:03:03;94584.25;;;1.95;100.00
39301;BME280;25019;42.626;23.380;2022-12-01T00:05:29;94700.00;;;2.55;100.00
39301;BME280;25019;42.626;23.380;2022-12-01T00:07:54;94677.66;;;2.60;100.00
39301;BME280;25019;42.626;23.380;2022-12-01T00:10:22;94543.88;;;1.61;100.00
39301;BME280;25019;42.626;23.380;2022-12-01T00:12:54;94694.84;;;2.62;100.00
39301;BME280;25019;42.626;23.380;2022-12-01T00:15:22;94693.00;;;2.63;100.00
39301;BME280;25019;42.626;23.380;2022-12-01T00:17:48;94677.63;;;2.53;100.00
39301;BME280;25019;42.626;23.380;2022-12-01T00:20:16;94679.09;;;2.62;100.00
39301;BME280;25019;42.626;23.380;2022-12-01T00:22:44;94681.13;;;2.67;100.00
39301;BME280;25019;42.626;23.380;2022-12-01T00:25:10;94681.53;;;2.64;100.00
39301;BME280;25019;42.626;23.380;2022-12-01T00:27:36;94684.38;;;2.69;100.00
39301;BME280;25019;42.626;23.380;2022-12-01T00:30:04;94636.75;;;2.37;100.00
39301;BME280;25019;42.626;23.380;2022-12-01T00:32:30;94574.19;;;1.99;100.00
39301;BME280;25019;42.626;23.380;2022-12-01T00:34:56;94678.94;;;2.70;100.00
39301;BME280;25019;42.626;23.380;2022-12-01T00:37:22;94676.69;;;2.67;100.00
39301;BME280;25019;42.626;23.380;2022-12-01T00:39:47;94675.03;;;2.60;100.00
39301;BME280;25019;42.626;23.380;2022-12-01T00:42:13;94681.91;;;2.61;100.00
39301;BME280;25019;42.626;23.380;2022-12-01T00:44:38;94677.25;;;2.56;100.00
39301;BME280;25019;42.626;23.380;2022-12-01T00:47:04;94674.16;;;2.52;100.00
39301;BME280;25019;42.626;23.380;2022-12-01T00:49:30;94672.78;;;2.57;100.00
39301;BME280;25019;42.626;23.380;2022-12-01T00:51:56;94667.25;;;2.45;100.00
39301;BME280;25019;42.626;23.380;2022-12-01T00:54:22;94677.84;;;2.58;100.00
39301;BME280;25019;42.626;23.380;2022-12-01T00:56:48;94656.16;;;2.43;100.00
39301;BME280;25019;42.626;23.380;2022-12-01T00:59:13;94667.00;;;2.61;100.00
39301;BME280;25019;42.626;23.380;2022-12-01T01:01:39;94584.25;;;1.95;100.00
39301;BME280;25019;42.626;23.380;2022-12-01T01:04:05;94522.06;;;1.54;100.00
39301;BME280;25019;42.626;23.380;2022-12-01T01:06:31;94608.03;;;2.22;100.00
39301;BME280;25019;42.626;23.380;2022-12-01T01:08:57;94678.13;;;2.70;100.00
39301;BME280;25019;42.626;23.380;2022-12-01T01:11:23;94662.78;;;2.67;100.00
39301;BME280;25019;42.626;23.380;2022-12-01T01:13:48;94672.44;;;2.66;100.00
39301;BME280;25019;42.626;23.380;2022-12-01T01:16:17;94667.81;;;2.68;100.00
39301;BME280;25019;42.626;23.380;2022-12-01T01:18:43;94673.31;;;2.74;100.00
39301;BME280;25019;42.626;23.380;2022-12-01T01:21:15;94549.97;;;1.90;100.00
39301;BME280;25019;42.626;23.380;2022-12-01T01:23:41;94665.75;;;2.57;100.00
39301;BME280;25019;42.626;23.380;2022-12-01T01:28:37;94585.38;;;2.07;100.00
39301;BME280;25019;42.626;23.380;2022-12-01T01:31:10;94655.06;;;2.59;100.00
39301;BME280;25019;42.626;23.380;2022-12-01T01:33:36;94576.94;;;2.12;100.00
39301;BME280;25019;42.626;23.380;2022-12-01T01:36:03;94625.47;;;2.36;100.00
39301;BME280;25019;42.626;23.380;2022-12-01T01:38:29;94657.53;;;2.67;100.00
39301;BME280;25019;42.626;23.380;2022-12-01T01:40:55;94652.09;;;2.68;100.00
39301;BME280;25019;42.626;23.380;2022-12-01T01:43:53;94645.63;;;2.64;100.00
39301;BME280;25019;42.626;23.380;2022-12-01T01:46:22;94591.00;;;2.39;100.00
39301;BME280;25019;42.626;23.380;2022-12-01T01:49:14;94644.28;;;2.75;100.00
39301;BME280;25019;42.626;23.380;2022-12-01T01:51:44;94647.09;;;2.80;100.00
39301;BME280;25019;42.626;23.380;2022-12-01T01:54:27;94603.81;;;2.56;100.00
39301;BME280;25019;42.626;23.380;2022-12-01T01:56:56;94637.34;;;2.67;100.00
39301;BME280;25019;42.626;23.380;2022-12-01T01:59:27;94632.91;;;2.61;100.00
39301;BME280;25019;42.626;23.380;2022-12-01T02:02:05;94525.00;;;1.94;100.00
39301;BME280;25019;42.626;23.380;2022-12-01T02:04:35;94639.19;;;2.67;100.00
39301;BME280;25019;42.626;23.380;2022-12-01T02:07:02;94628.69;;;2.67;100.00
39301;BME280;25019;42.626;23.380;2022-12-01T02:09:28;94637.56;;;2.66;100.00
39301;BME280;25019;42.626;23.380;2022-12-01T02:14:52;94631.06;;;2.62;100.00
39301;BME280;25019;42.626;23.380;2022-12-01T02:23:20;94540.50;;;1.95;100.00
39301;BME280;25019;42.626;23.380;2022-12-01T02:37:12;94616.69;;;2.51;100.00
39301;BME280;25019;42.626;23.380;2022-12-01T02:39:56;94513.03;;;1.85;100.00
39301;BME280;25019;42.626;23.380;2022-12-01T02:42:32;94533.09;;;1.99;100.00
39301;BME280;25019;42.626;23.380;2022-12-01T02:45:25;94615.47;;;2.53;100.00
39301;BME280;25019;42.626;23.380;2022-12-01T02:47:55;94619.56;;;2.56;100.00
39301;BME280;25019;42.626;23.380;2022-12-01T02:50:24;94617.94;;;2.55;100.00
39301;BME280;25019;42.626;23.380;2022-12-01T02:52:52;94551.44;;;1.99;100.00
39301;BME280;25019;42.626;23.380;2022-12-01T02:55:18;94613.66;;;2.47;100.00
39301;BME280;25019;42.626;23.380;2022-12-01T02:57:44;94613.69;;;2.54;100.00
39301;BME280;25019;42.626;23.380;2022-12-01T03:00:10;94529.53;;;2.07;100.00
39301;BME280;25019;42.626;23.380;2022-12-01T03:05:50;94613.69;;;2.54;100.00
39301;BME280;25019;42.626;23.380;2022-12-01T03:08:58;94585.38;;;2.43;100.00
39301;BME280;25019;42.626;23.380;2022-12-01T03:14:45;94608.94;;;2.71;100.00
39301;BME280;25019;42.626;23.380;2022-12-01T03:17:20;94567.84;;;2.43;100.00
39301;BME280;25019;42.626;23.380;2022-12-01T03:20:13;94609.13;;;2.69;100.00
39301;BME280;25019;42.626;23.380;2022-12-01T03:22:45;94607.09;;;2.65;100.00
39301;BME280;25019;42.626;23.380;2022-12-01T03:25:14;94611.34;;;2.66;100.00
39301;BME280;25019;42.626;23.380;2022-12-01T03:27:43;94539.25;;;2.13;100.00
39301;BME280;25019;42.626;23.380;2022-12-01T03:30:11;94600.72;;;2.46;100.00
39301;BME280;25019;42.626;23.380;2022-12-01T03:35:14;94612.09;;;2.60;100.00
39301;BME280;25019;42.626;23.380;2022-12-01T03:40:18;94593.88;;;2.51;100.00
39301;BME280;25019;42.626;23.380;2022-12-01T03:45:57;94566.47;;;2.19;100.00
39301;BME280;25019;42.626;23.380;2022-12-01T03:48:25;94615.47;;;2.53;100.00
39301;BME280;25019;42.626;23.380;2022-12-01T03:56:38;94612.78;;;2.40;100.00
39301;BME280;25019;42.626;23.380;2022-12-01T03:59:09;94609.56;;;2.38;100.00
39301;BME280;25019;42.626;23.380;2022-12-01T04:01:35;94600.28;;;2.35;100.00
39301;BME280;25019;42.626;23.380;2022-12-01T04:04:09;94601.59;;;2.24;100.00
39301;BME280;25019;42.626;23.380;2022-12-01T04:06:36;94605.28;;;2.30;100.00
39301;BME280;25019;42.626;23.380;2022-12-01T04:09:03;94566.19;;;2.07;100.00
39301;BME280;25019;42.626;23.380;2022-12-01T04:11:29;94596.34;;;2.24;100.00
39301;BME280;25019;42.626;23.380;2022-12-01T04:14:13;94604.81;;;2.27;100.00
39301;BME280;25019;42.626;23.380;2022-12-01T04:16:39;94613.69;;;2.25;100.00
39301;BME280;25019;42.626;23.380;2022-12-01T04:19:04;94604.78;;;2.20;100.00
39301;BME280;25019;42.626;23.380;2022-12-01T04:21:30;94456.63;;;1.25;100.00
39301;BME280;25019;42.626;23.380;2022-12-01T04:23:56;94597.06;;;2.12;100.00
39301;BME280;25019;42.626;23.380;2022-12-01T04:26:25;94610.22;;;2.18;100.00
39301;BME280;25019;42.626;23.380;2022-12-01T04:28:51;94521.22;;;1.46;100.00
39301;BME280;25019;42.626;23.380;2022-12-01T04:31:16;94581.13;;;1.85;100.00
39301;BME280;25019;42.626;23.380;2022-12-01T04:33:42;94502.16;;;1.31;100.00
39301;BME280;25019;42.626;23.380;2022-12-01T04:36:08;94620.03;;;2.09;100.00
39301;BME280;25019;42.626;23.380;2022-12-01T04:38:34;94531.06;;;1.44;100.00
39301;BME280;25019;42.626;23.380;2022-12-01T04:41:07;94619.09;;;1.95;100.00
39301;BME280;25019;42.626;23.380;2022-12-01T04:43:33;94589.00;;;1.85;100.00
39301;BME280;25019;42.626;23.380;2022-12-01T04:45:59;94439.03;;;0.91;100.00
39301;BME280;25019;42.626;23.380;2022-12-01T04:48:24;94607.50;;;2.05;100.00
39301;BME280;25019;42.626;23.380;2022-12-01T04:50:50;94620.25;;;2.15;100.00
39301;BME280;25019;42.626;23.380;2022-12-01T04:53:16;94628.13;;;2.15;100.00
39301;BME280;25019;42.626;23.380;2022-12-01T04:55:41;94619.34;;;2.01;100.00
39301;BME280;25019;42.626;23.380;2022-12-01T04:58:07;94622.59;;;2.03;100.00
39301;BME280;25019;42.626;23.380;2022-12-01T05:00:32;94597.94;;;1.90;100.00
39301;BME280;25019;42.626;23.380;2022-12-01T05:02:59;94606.16;;;1.87;100.00
39301;BME280;25019;42.626;23.380;2022-12-01T05:05:24;94622.13;;;1.92;100.00
39301;BME280;25019;42.626;23.380;2022-12-01T05:07:50;94541.22;;;1.32;100.00
39301;BME280;25019;42.626;23.380;2022-12-01T05:10:16;94612.03;;;1.89;100.00
39301;BME280;25019;42.626;23.380;2022-12-01T05:12:44;94619.69;;;1.91;100.00
39301;BME280;25019;42.626;23.380;2022-12-01T05:15:11;94624.91;;;1.91;100.00
39301;BME280;25019;42.626;23.380;2022-12-01T05:17:37;94614.38;;;1.84;100.00
39301;BME280;25019;42.626;23.380;2022-12-01T05:20:03;94528.88;;;1.26;100.00
39301;BME280;25019;42.626;23.380;2022-12-01T05:22:47;94626.28;;;1.87;100.00
39301;BME280;25019;42.626;23.380;2022-12-01T05:25:13;94616.50;;;1.74;100.00
39301;BME280;25019;42.626;23.380;2022-12-01T05:27:39;94629.84;;;1.79;100.00
39301;BME280;25019;42.626;23.380;2022-12-01T05:30:05;94528.22;;;1.17;100.00
39301;BME280;25019;42.626;23.380;2022-12-01T05:32:31;94521.84;;;1.05;100.00
39301;BME280;25019;42.626;23.380;2022-12-01T05:34:56;94607.81;;;1.67;100.00
39301;BME280;25019;42.626;23.380;2022-12-01T05:37:22;94622.38;;;1.76;100.00
39301;BME280;25019;42.626;23.380;2022-12-01T05:39:47;94629.22;;;1.77;100.00
39301;BME280;25019;42.626;23.380;2022-12-01T05:42:13;94603.09;;;1.62;100.00
39301;BME280;25019;42.626;23.380;2022-12-01T05:44:38;94631.69;;;1.78;100.00
39301;BME280;25019;42.626;23.380;2022-12-01T05:47:04;94628.97;;;1.72;100.00
39301;BME280;25019;42.626;23.380;2022-12-01T05:49:30;94623.56;;;1.73;100.00
39301;BME280;25019;42.626;23.380;2022-12-01T05:51:55;94633.97;;;1.88;100.00
39301;BME280;25019;42.626;23.380;2022-12-01T05:54:21;94632.91;;;1.83;100.00
39301;BME280;25019;42.626;23.380;2022-12-01T05:56:46;94620.63;;;1.83;100.00
39301;BME280;25019;42.626;23.380;2022-12-01T05:59:12;94546.16;;;1.42;100.00
39301;BME280;25019;42.626;23.380;2022-12-01T06:01:37;94640.50;;;1.99;100.00
39301;BME280;25019;42.626;23.380;2022-12-01T06:04:03;94641.88;;;1.95;100.00
39301;BME280;25019;42.626;23.380;2022-12-01T06:06:29;94616.59;;;1.81;100.00
39301;BME280;25019;42.626;23.380;2022-12-01T06:08:54;94646.69;;;1.91;100.00
39301;BME280;25019;42.626;23.380;2022-12-01T06:11:20;94644.94;;;1.77;100.00
39301;BME280;25019;42.626;23.380;2022-12-01T06:13:45;94636.47;;;1.75;100.00
39301;BME280;25019;42.626;23.380;2022-12-01T06:16:11;94639.91;;;1.75;100.00
39301;BME280;25019;42.626;23.380;2022-12-01T06:18:37;94647.56;;;1.77;100.00
39301;BME280;25019;42.626;23.380;2022-12-01T06:21:04;94568.78;;;1.28;100.00
39301;BME280;25019;42.626;23.380;2022-12-01T06:23:30;94619.75;;;1.54;100.00
39301;BME280;25019;42.626;23.380;2022-12-01T06:25:56;94640.69;;;1.76;100.00
39301;BME280;25019;42.626;23.380;2022-12-01T06:28:23;94651.75;;;1.71;100.00
39301;BME280;25019;42.626;23.380;2022-12-01T06:30:48;94640.00;;;1.67;100.00
39301;BME280;25019;42.626;23.380;2022-12-01T06:33:14;94637.41;;;1.67;100.00
39301;BME280;25019;42.626;23.380;2022-12-01T06:35:39;94637.03;;;1.70;100.00
39301;BME280;25019;42.626;23.380;2022-12-01T06:38:05;94639.66;;;1.70;100.00
39301;BME280;25019;42.626;23.380;2022-12-01T06:40:31;94539.34;;;1.26;100.00
39301;BME280;25019;42.626;23.380;2022-12-01T06:43:00;94536.06;;;1.39;100.00
39301;BME280;25019;42.626;23.380;2022-12-01T06:45:27;94634.22;;;2.22;100.00
39301;BME280;25019;42.626;23.380;2022-12-01T06:47:54;94636.25;;;2.48;100.00
39301;BME280;25019;42.626;23.380;2022-12-01T06:50:20;94633.19;;;2.45;100.00
39301;BME280;25019;42.626;23.380;2022-12-01T06:52:47;94642.19;;;2.64;100.00
39301;BME280;25019;42.626;23.380;2022-12-01T06:55:13;94644.81;;;2.64;100.00
39301;BME280;25019;42.626;23.380;2022-12-01T06:57:38;94639.28;;;2.52;100.00
39301;BME280;25019;42.626;23.380;2022-12-01T07:00:05;94552.25;;;1.71;100.00
39301;BME280;25019;42.626;23.380;2022-12-01T07:02:31;94631.84;;;2.27;100.00
39301;BME280;25019;42.626;23.380;2022-12-01T07:04:57;94624.50;;;2.16;100.00
39301;BME280;25019;42.626;23.380;2022-12-01T07:07:22;94642.69;;;2.17;100.00
39301;BME280;25019;42.626;23.380;2022-12-01T07:09:48;94617.09;;;1.98;100.00
39301;BME280;25019;42.626;23.380;2022-12-01T07:12:14;94640.59;;;2.13;100.00
39301;BME280;25019;42.626;23.380;2022-12-01T07:14:39;94642.81;;;2.09;100.00
39301;BME280;25019;42.626;23.380;2022-12-01T07:17:08;94644.81;;;2.07;100.00
39301;BME280;25019;42.626;23.380;2022-12-01T07:19:34;94657.16;;;2.13;100.00
39301;BME280;25019;42.626;23.380;2022-12-01T07:22:00;94656.47;;;2.04;100.00
39301;BME280;25019;42.626;23.380;2022-12-01T07:24:25;94621.63;;;1.82;100.00
39301;BME280;25019;42.626;23.380;2022-12-01T07:26:51;94650.31;;;1.90;100.00
39301;BME280;25019;42.626;23.380;2022-12-01T07:29:16;94644.81;;;1.85;100.00
39301;BME280;25019;42.626;23.380;2022-12-01T07:31:42;94646.75;;;1.98;100.00
39301;BME280;25019;42.626;23.380;2022-12-01T07:34:10;94636.75;;;1.87;100.00
39301;BME280;25019;42.626;23.380;2022-12-01T07:36:36;94647.75;;;1.97;100.00
39301;BME280;25019;42.626;23.380;2022-12-01T07:39:06;94657.97;;;1.92;100.00
39301;BME280;25019;42.626;23.380;2022-12-01T07:41:33;94653.31;;;1.87;100.00
39301;BME280;25019;42.626;23.380;2022-12-01T07:44:00;94653.31;;;1.87;100.00
39301;BME280;25019;42.626;23.380;2022-12-01T07:46:26;94562.91;;;1.26;100.00
39301;BME280;25019;42.626;23.380;2022-12-01T07:48:53;94591.50;;;1.28;100.00
39301;BME280;25019;42.626;23.380;2022-12-01T07:51:20;94659.03;;;1.76;100.00
39301;BME280;25019;42.626;23.380;2022-12-01T07:53:48;94652.00;;;1.76;100.00
39301;BME280;25019;42.626;23.380;2022-12-01T07:56:14;94651.75;;;1.71;100.00
39301;BME280;25019;42.626;23.380;2022-12-01T07:58:40;94661.03;;;1.74;100.00
39301;BME280;25019;42.626;23.380;2022-12-01T08:01:16;94662.47;;;1.76;100.00
39301;BME280;25019;42.626;23.380;2022-12-01T08:03:43;94601.41;;;1.32;100.00
39301;BME280;25019;42.626;23.380;2022-12-01T08:06:09;94574.09;;;1.20;100.00
39301;BME280;25019;42.626;23.380;2022-12-01T08:08:36;94627.28;;;1.64;100.00
39301;BME280;25019;42.626;23.380;2022-12-01T08:11:05;94638.03;;;1.69;100.00
39301;BME280;25019;42.626;23.380;2022-12-01T08:13:31;94663.78;;;1.87;100.00
39301;BME280;25019;42.626;23.380;2022-12-01T08:15:57;94618.03;;;1.61;100.00
39301;BME280;25019;42.626;23.380;2022-12-01T08:18:23;94648.19;;;1.79;100.00
39301;BME280;25019;42.626;23.380;2022-12-01T08:20:49;94629.03;;;1.57;100.00
39301;BME280;25019;42.626;23.380;2022-12-01T08:23:15;94661.91;;;1.81;100.00
39301;BME280;25019;42.626;23.380;2022-12-01T08:25:41;94567.09;;;1.21;100.00
39301;BME280;25019;42.626;23.380;2022-12-01T08:28:07;94653.84;;;1.83;100.00
39301;BME280;25019;42.626;23.380;2022-12-01T08:30:32;94669.81;;;1.88;100.00
39301;BME280;25019;42.626;23.380;2022-12-01T08:32:58;94659.59;;;1.93;100.00
39301;BME280;25019;42.626;23.380;2022-12-01T08:35:24;94647.13;;;1.73;100.00
39301;BME280;25019;42.626;23.380;2022-12-01T08:37:53;94654.78;;;1.75;100.00
39301;BME280;25019;42.626;23.380;2022-12-01T08:40:19;94652.53;;;1.72;100.00
39301;BME280;25019;42.626;23.380;2022-12-01T08:42:46;94656.25;;;1.77;100.00
39301;BME280;25019;42.626;23.380;2022-12-01T08:45:11;94628.50;;;1.61;100.00
39301;BME280;25019;42.626;23.380;2022-12-01T08:47:37;94658.53;;;1.87;100.00
39301;BME280;25019;42.626;23.380;2022-12-01T08:50:03;94470.44;;;0.76;100.00
39301;BME280;25019;42.626;23.380;2022-12-01T08:52:32;94648.94;;;1.94;100.00
39301;BME280;25019;42.626;23.380;2022-12-01T08:54:59;94651.69;;;1.86;100.00
39301;BME280;25019;42.626;23.380;2022-12-01T08:57:25;94640.69;;;1.76;100.00
39301;BME280;25019;42.626;23.380;2022-12-01T08:59:53;94655.97;;;1.94;100.00
39301;BME280;25019;42.626;23.380;2022-12-01T09:02:18;94560.59;;;1.38;100.00
39301;BME280;25019;42.626;23.380;2022-12-01T09:04:47;94625.97;;;1.97;100.00
39301;BME280;25019;42.626;23.380;2022-12-01T09:07:14;94608.81;;;1.66;100.00
39301;BME280;25019;42.626;23.380;2022-12-01T09:09:42;94627.28;;;1.86;100.00
39301;BME280;25019;42.626;23.380;2022-12-01T09:12:08;94638.13;;;2.04;100.00
39301;BME280;25019;42.626;23.380;2022-12-01T09:14:38;94620.31;;;1.93;100.00
39301;BME280;25019;42.626;23.380;2022-12-01T09:17:05;94638.31;;;2.03;100.00
39301;BME280;25019;42.626;23.380;2022-12-01T09:19:31;94633.94;;;2.10;100.00
39301;BME280;25019;42.626;23.380;2022-12-01T09:21:57;94562.59;;;1.58;100.00
39301;BME280;25019;42.626;23.380;2022-12-01T09:24:23;94636.00;;;2.15;100.00
39301;BME280;25019;42.626;23.380;2022-12-01T09:26:48;94604.22;;;1.96;100.00
39301;BME280;25019;42.626;23.380;2022-12-01T09:29:15;94619.66;;;2.13;100.00
39301;BME280;25019;42.626;23.380;2022-12-01T09:31:41;94601.00;;;2.01;100.00
39301;BME280;25019;42.626;23.380;2022-12-01T09:34:11;94628.13;;;2.15;100.00
39301;BME280;25019;42.626;23.380;2022-12-01T09:36:38;94614.84;;;2.16;100.00
39301;BME280;25019;42.626;23.380;2022-12-01T09:39:07;94546.75;;;1.66;100.00
39301;BME280;25019;42.626;23.380;2022-12-01T09:41:40;94620.50;;;2.20;100.00
39301;BME280;25019;42.626;23.380;2022-12-01T09:52:01;94612.03;;;2.18;100.00
39301;BME280;25019;42.626;23.380;2022-12-01T09:54:27;94524.69;;;1.54;100.00
39301;BME280;25019;42.626;23.380;2022-12-01T09:56:53;94532.75;;;1.52;100.00
39301;BME280;25019;42.626;23.380;2022-12-01T09:59:21;94610.56;;;2.08;100.00
39301;BME280;25019;42.626;23.380;2022-12-01T10:01:53;94604.50;;;2.08;100.00
39301;BME280;25019;42.626;23.380;2022-12-01T10:04:34;94590.41;;;2.09;100.00
39301;BME280;25019;42.626;23.380;2022-12-01T10:09:59;94593.72;;;2.24;100.00
39301;BME280;25019;42.626;23.380;2022-12-01T10:12:30;94590.53;;;2.29;100.00
39301;BME280;25019;42.626;23.380;2022-12-01T10:18:04;94594.16;;;2.28;100.00
39301;BME280;25019;42.626;23.380;2022-12-01T10:23:34;94575.97;;;2.20;100.00
39301;BME280;25019;42.626;23.380;2022-12-01T10:26:11;94598.75;;;2.19;100.00
39301;BME280;25019;42.626;23.380;2022-12-01T10:29:11;94505.63;;;1.60;100.00
39301;BME280;25019;42.626;23.380;2022-12-01T10:31:44;94597.41;;;2.30;100.00
39301;BME280;25019;42.626;23.380;2022-12-01T10:34:36;94591.72;;;2.27;100.00
39301;BME280;25019;42.626;23.380;2022-12-01T10:37:04;94520.13;;;1.91;100.00
39301;BME280;25019;42.626;23.380;2022-12-01T10:39:38;94593.00;;;2.37;100.00
39301;BME280;25019;42.626;23.380;2022-12-01T10:42:06;94586.09;;;2.30;100.00
39301;BME280;25019;42.626;23.380;2022-12-01T10:44:36;94570.06;;;2.11;100.00
39301;BME280;25019;42.626;23.380;2022-12-01T10:47:02;94575.34;;;2.18;100.00
39301;BME280;25019;42.626;23.380;2022-12-01T10:49:39;94591.97;;;2.32;100.00
39301;BME280;25019;42.626;23.380;2022-12-01T10:52:06;94584.09;;;2.32;100.00
39301;BME280;25019;42.626;23.380;2022-12-01T10:54:35;94588.34;;;2.33;100.00
39301;BME280;25019;42.626;23.380;2022-12-01T10:57:02;94572.88;;;2.45;100.00
39301;BME280;25019;42.626;23.380;2022-12-01T11:01:53;94580.97;;;2.43;100.00
39301;BME280;25019;42.626;23.380;2022-12-01T11:04:42;94568.38;;;2.32;100.00
39301;BME280;25019;42.626;23.380;2022-12-01T11:07:24;94506.47;;;1.95;100.00
39301;BME280;25019;42.626;23.380;2022-12-01T11:12:40;94471.44;;;1.68;100.00
39301;BME280;25019;42.626;23.380;2022-12-01T11:15:07;94464.69;;;1.81;100.00
39301;BME280;25019;42.626;23.380;2022-12-01T11:17:42;94569.03;;;2.40;100.00
39301;BME280;25019;42.626;23.380;2022-12-01T11:25:34;94552.47;;;2.05;100.00
39301;BME280;25019;42.626;23.380;2022-12-01T11:28:02;94572.31;;;2.14;100.00
39301;BME280;25019;42.626;23.380;2022-12-01T11:30:30;94539.34;;;1.98;100.00
39301;BME280;25019;42.626;23.380;2022-12-01T11:32:58;94565.63;;;2.12;100.00
39301;BME280;25019;42.626;23.380;2022-12-01T11:35:27;94543.53;;;1.92;100.00
39301;BME280;25019;42.626;23.380;2022-12-01T11:37:57;94577.97;;;2.18;100.00
39301;BME280;25019;42.626;23.380;2022-12-01T11:40:32;94566.31;;;2.20;100.00
39301;BME280;25019;42.626;23.380;2022-12-01T11:43:04;94570.69;;;2.13;100.00
39301;BME280;25019;42.626;23.380;2022-12-01T11:45:36;94439.63;;;1.43;100.00
39301;BME280;25019;42.626;23.380;2022-12-01T11:50:41;94560.63;;;2.17;100.00
39301;BME280;25019;42.626;23.380;2022-12-01T11:53:26;94577.72;;;2.13;100.00
39301;BME280;25019;42.626;23.380;2022-12-01T11:56:13;94562.56;;;2.08;100.00
39301;BME280;25019;42.626;23.380;2022-12-01T11:58:41;94562.00;;;2.13;100.00
39301;BME280;25019;42.626;23.380;2022-12-01T12:01:34;94566.44;;;2.12;100.00
39301;BME280;25019;42.626;23.380;2022-12-01T12:06:40;94557.09;;;2.03;100.00
39301;BME280;25019;42.626;23.380;2022-12-01T12:11:51;94568.03;;;2.06;100.00
39301;BME280;25019;42.626;23.380;2022-12-01T12:30:30;94566.28;;;1.92;100.00
39301;BME280;25019;42.626;23.380;2022-12-01T12:33:27;94563.59;;;1.78;100.00
39301;BME280;25019;42.626;23.380;2022-12-01T12:41:45;94560.34;;;1.76;100.00
39301;BME280;25019;42.626;23.380;2022-12-01T12:52:02;94572.97;;;1.73;100.00
39301;BME280;25019;42.626;23.380;2022-12-01T12:54:33;94567.50;;;1.68;100.00
39301;BME280;25019;42.626;23.380;2022-12-01T12:57:09;94572.31;;;1.64;100.00
39301;BME280;25019;42.626;23.380;2022-12-01T12:59:51;94579.75;;;1.60;100.00
39301;BME280;25019;42.626;23.380;2022-12-01T13:02:35;94579.13;;;1.58;100.00
39301;BME280;25019;42.626;23.380;2022-12-01T13:05:16;94566.25;;;1.42;100.00
39301;BME280;25019;42.626;23.380;2022-12-01T13:07:52;94509.22;;;1.09;100.00
39301;BME280;25019;42.626;23.380;2022-12-01T13:12:54;94560.59;;;1.38;100.00
39301;BME280;25019;42.626;23.380;2022-12-01T13:15:20;94577.34;;;1.44;100.00
39301;BME280;25019;42.626;23.380;2022-12-01T13:17:58;94568.88;;;1.42;100.00
39301;BME280;25019;42.626;23.380;2022-12-01T13:20:27;94488.88;;;0.89;100.00
39301;BME280;25019;42.626;23.380;2022-12-01T13:22:55;94585.09;;;1.52;100.00
39301;BME280;25019;42.626;23.380;2022-12-01T13:25:28;94581.75;;;1.58;100.00
39301;BME280;25019;42.626;23.380;2022-12-01T13:27:57;94572.50;;;1.41;100.00
39301;BME280;25019;42.626;23.380;2022-12-01T13:30:25;94511.19;;;1.07;100.00
39301;BME280;25019;42.626;23.380;2022-12-01T13:33:02;94552.94;;;1.37;100.00
39301;BME280;25019;42.626;23.380;2022-12-01T13:35:38;94582.47;;;1.52;100.00
39301;BME280;25019;42.626;23.380;2022-12-01T13:38:27;94581.84;;;1.50;100.00
39301;BME280;25019;42.626;23.380;2022-12-01T13:43:53;94575.88;;;1.34;100.00
39301;BME280;25019;42.626;23.380;2022-12-01T13:46:24;94567.41;;;1.32;100.00
39301;BME280;25019;42.626;23.380;2022-12-01T13:48:55;94557.88;;;1.25;100.00
39301;BME280;25019;42.626;23.380;2022-12-01T13:51:22;94578.81;;;1.46;100.00
39301;BME280;25019;42.626;23.380;2022-12-01T13:54:26;94577.00;;;1.47;100.00
39301;BME280;25019;42.626;23.380;2022-12-01T13:57:02;94547.22;;;1.26;100.00
39301;BME280;25019;42.626;23.380;2022-12-01T14:02:24;94571.69;;;1.40;100.00
39301;BME280;25019;42.626;23.380;2022-12-01T14:04:49;94573.94;;;1.43;100.00
39301;BME280;25019;42.626;23.380;2022-12-01T14:07:31;94572.94;;;1.44;100.00
39301;BME280;25019;42.626;23.380;2022-12-01T14:10:07;94559.28;;;1.27;100.00
39301;BME280;25019;42.626;23.380;2022-12-01T14:12:34;94463.09;;;0.64;100.00
39301;BME280;25019;42.626;23.380;2022-12-01T14:15:18;94583.78;;;1.41;100.00
39301;BME280;25019;42.626;23.380;2022-12-01T14:17:45;94556.94;;;1.32;100.00
39301;BME280;25019;42.626;23.380;2022-12-01T14:22:44;94454.75;;;0.76;100.00
39301;BME280;25019;42.626;23.380;2022-12-01T14:27:51;94563.41;;;1.37;100.00
39301;BME280;25019;42.626;23.380;2022-12-01T14:36:18;94583.03;;;1.47;100.00
39301;BME280;25019;42.626;23.380;2022-12-01T14:38:46;94547.41;;;1.25;100.00
39301;BME280;25019;42.626;23.380;2022-12-01T14:41:55;94585.97;;;1.38;100.00
39301;BME280;25019;42.626;23.380;2022-12-01T14:44:39;94586.41;;;1.41;100.00
39301;BME280;25019;42.626;23.380;2022-12-01T14:49:49;94593.00;;;1.37;100.00
39301;BME280;25019;42.626;23.380;2022-12-01T14:54:56;94596.63;;;1.36;100.00
39301;BME280;25019;42.626;23.380;2022-12-01T14:57:28;94595.19;;;1.33;100.00
39301;BME280;25019;42.626;23.380;2022-12-01T15:00:04;94607.28;;;1.34;100.00
39301;BME280;25019;42.626;23.380;2022-12-01T15:02:30;94603.59;;;1.29;100.00
39301;BME280;25019;42.626;23.380;2022-12-01T15:05:11;94604.09;;;1.17;100.00
39301;BME280;25019;42.626;23.380;2022-12-01T15:07:39;94599.47;;;1.19;100.00
39301;BME280;25019;42.626;23.380;2022-12-01T15:12:45;94519.59;;;0.65;100.00
39301;BME280;25019;42.626;23.380;2022-12-01T15:15:23;94542.03;;;0.74;100.00
39301;BME280;25019;42.626;23.380;2022-12-01T15:17:49;94503.84;;;0.58;100.00